sensor_id;sensor_type;location;lat;lon;timestamp;temperature;humidity
1888;DHT22;944;51.574;6.980;2023-06-10T00:00:41;21.40;99.90
1888;DHT22;944;51.574;6.980;2023-06-10T00:03:09;21.30;99.90
1888;DHT22;944;51.574;6.980;2023-06-10T00:05:38;21.30;99.90
1888;DHT22;944;51.574;6.980;2023-06-10T00:08:07;21.30;99.90
1888;DHT22;944;51.574;6.980;2023-06-10T00:10:37;21.20;99.90
1888;DHT22;944;51.574;6.980;2023-06-10T00:13:05;21.10;99.90
1888;DHT22;944;51.574;6.980;2023-06-10T00:15:34;21.10;99.90
1888;DHT22;944;51.574;6.980;2023-06-10T00:18:02;21.00;99.90
1888;DHT22;944;51.574;6.980;2023-06-10T00:20:29;21.00;99.90
1888;DHT22;944;51.574;6.980;2023-06-10T00:22:57;20.80;99.90
1888;DHT22;944;51.574;6.980;2023-06-10T00:25:26;20.80;99.90
1888;DHT22;944;51.574;6.980;2023-06-10T00:27:53;20.80;99.90
1888;DHT22;944;51.574;6.980;2023-06-10T00:30:20;20.80;99.90
1888;DHT22;944;51.574;6.980;2023-06-10T00:32:47;20.70;99.90
1888;DHT22;944;51.574;6.980;2023-06-10T00:35:14;20.60;99.90
1888;DHT22;944;51.574;6.980;2023-06-10T00:37:41;20.50;99.90
1888;DHT22;944;51.574;6.980;2023-06-10T00:40:09;20.50;99.90
1888;DHT22;944;51.574;6.980;2023-06-10T00:42:38;20.40;99.90
1888;DHT22;944;51.574;6.980;2023-06-10T00:45:06;20.30;99.90
1888;DHT22;944;51.574;6.980;2023-06-10T00:47:33;20.30;99.90
1888;DHT22;944;51.574;6.980;2023-06-10T00:50:01;20.10;99.90
1888;DHT22;944;51.574;6.980;2023-06-10T00:52:30;20.20;99.90
1888;DHT22;944;51.574;6.980;2023-06-10T00:54:57;20.20;99.90
1888;DHT22;944;51.574;6.980;2023-06-10T00:57:25;20.20;99.90
1888;DHT22;944;51.574;6.980;2023-06-10T00:59:54;20.20;99.90
1888;DHT22;944;51.574;6.980;2023-06-10T01:02:21;20.20;99.90
1888;DHT22;944;51.574;6.980;2023-06-10T01:04:48;20.30;99.90
1888;DHT22;944;51.574;6.980;2023-06-10T01:07:20;20.20;99.90
1888;DHT22;944;51.574;6.980;2023-06-10T01:09:55;20.20;99.90
1888;DHT22;944;51.574;6.980;2023-06-10T01:12:31;20.10;99.90
1888;DHT22;944;51.574;6.980;2023-06-10T01:15:02;20.10;99.90
1888;DHT22;944;51.574;6.980;2023-06-10T01:17:29;20.10;99.90
1888;DHT22;944;51.574;6.980;2023-06-10T01:19:57;20.00;99.90
1888;DHT22;944;51.574;6.980;2023-06-10T01:22:26;20.10;99.90
1888;DHT22;944;51.574;6.980;2023-06-10T01:24:57;20.00;99.90
1888;DHT22;944;51.574;6.980;2023-06-10T01:27:28;20.00;99.90
1888;DHT22;944;51.574;6.980;2023-06-10T01:30:02;20.00;99.90
1888;DHT22;944;51.574;6.980;2023-06-10T01:32:34;19.90;99.90
1888;DHT22;944;51.574;6.980;2023-06-10T01:35:05;19.80;99.90
1888;DHT22;944;51.574;6.980;2023-06-10T01:37:36;19.70;99.90
1888;DHT22;944;51.574;6.980;2023-06-10T01:40:06;19.70;99.90
1888;DHT22;944;51.574;6.980;2023-06-10T01:42:35;19.80;99.90
1888;DHT22;944;51.574;6.980;2023-06-10T01:45:03;19.70;99.90
1888;DHT22;944;51.574;6.980;2023-06-10T01:47:33;19.80;99.90
1888;DHT22;944;51.574;6.980;2023-06-10T01:50:00;19.80;99.90
1888;DHT22;944;51.574;6.980;2023-06-10T01:52:29;19.70;99.90
1888;DHT22;944;51.574;6.980;2023-06-10T01:55:00;19.60;99.90
1888;DHT22;944;51.574;6.980;2023-06-10T01:57:27;19.60;99.90
1888;DHT22;944;51.574;6.980;2023-06-10T01:59:58;19.70;99.90
1888;DHT22;944;51.574;6.980;2023-06-10T02:02:26;19.50;99.90
1888;DHT22;944;51.574;6.980;2023-06-10T02:04:54;19.70;99.90
1888;DHT22;944;51.574;6.980;2023-06-10T02:07:22;19.60;99.90
1888;DHT22;944;51.574;6.980;2023-06-10T02:09:50;19.60;99.90
1888;DHT22;944;51.574;6.980;2023-06-10T02:12:18;19.50;99.90
1888;DHT22;944;51.574;6.980;2023-06-10T02:14:52;19.40;99.90
1888;DHT22;944;51.574;6.980;2023-06-10T02:17:19;19.30;99.90
1888;DHT22;944;51.574;6.980;2023-06-10T02:19:48;19.40;99.90
1888;DHT22;944;51.574;6.980;2023-06-10T02:22:19;19.40;99.90
1888;DHT22;944;51.574;6.980;2023-06-10T02:24:47;19.40;99.90
1888;DHT22;944;51.574;6.980;2023-06-10T02:27:14;19.40;99.90
1888;DHT22;944;51.574;6.980;2023-06-10T02:29:44;19.30;99.90
1888;DHT22;944;51.574;6.980;2023-06-10T02:32:11;19.40;99.90
1888;DHT22;944;51.574;6.980;2023-06-10T02:34:43;19.30;99.90
1888;DHT22;944;51.574;6.980;2023-06-10T02:37:12;19.40;99.90
1888;DHT22;944;51.574;6.980;2023-06-10T02:39:39;19.30;99.90
1888;DHT22;944;51.574;6.980;2023-06-10T02:42:11;19.30;99.90
1888;DHT22;944;51.574;6.980;2023-06-10T02:44:40;19.20;99.90
1888;DHT22;944;51.574;6.980;2023-06-10T02:47:10;19.10;99.90
1888;DHT22;944;51.574;6.980;2023-06-10T02:49:39;19.10;99.90
1888;DHT22;944;51.574;6.980;2023-06-10T02:52:10;19.10;99.90
1888;DHT22;944;51.574;6.980;2023-06-10T02:54:40;19.00;99.90
1888;DHT22;944;51.574;6.980;2023-06-10T02:57:08;19.10;99.90
1888;DHT22;944;51.574;6.980;2023-06-10T02:59:36;19.10;99.90
1888;DHT22;944;51.574;6.980;2023-06-10T03:02:05;19.20;99.90
1888;DHT22;944;51.574;6.980;2023-06-10T03:04:34;19.00;99.90
1888;DHT22;944;51.574;6.980;2023-06-10T03:07:04;19.00;99.90
1888;DHT22;944;51.574;6.980;2023-06-10T03:09:32;19.10;99.90
1888;DHT22;944;51.574;6.980;2023-06-10T03:12:00;18.90;99.90
1888;DHT22;944;51.574;6.980;2023-06-10T03:14:29;18.90;99.90
1888;DHT22;944;51.574;6.980;2023-06-10T03:16:58;18.90;99.90
1888;DHT22;944;51.574;6.980;2023-06-10T03:19:33;18.80;99.90
1888;DHT22;944;51.574;6.980;2023-06-10T03:22:10;18.70;99.90
1888;DHT22;944;51.574;6.980;2023-06-10T03:24:40;18.70;99.90
1888;DHT22;944;51.574;6.980;2023-06-10T03:27:14;18.70;99.90
1888;DHT22;944;51.574;6.980;2023-06-10T03:29:41;18.60;99.90
1888;DHT22;944;51.574;6.980;2023-06-10T03:32:10;18.60;99.90
1888;DHT22;944;51.574;6.980;2023-06-10T03:34:41;18.60;99.90
1888;DHT22;944;51.574;6.980;2023-06-10T03:37:10;18.70;99.90
1888;DHT22;944;51.574;6.980;2023-06-10T03:39:41;18.70;99.90
1888;DHT22;944;51.574;6.980;2023-06-10T03:42:13;18.70;99.90
1888;DHT22;944;51.574;6.980;2023-06-10T03:44:44;18.70;99.90
1888;DHT22;944;51.574;6.980;2023-06-10T03:47:12;18.70;99.90
1888;DHT22;944;51.574;6.980;2023-06-10T03:49:40;18.60;99.90
1888;DHT22;944;51.574;6.980;2023-06-10T03:52:08;18.60;99.90
1888;DHT22;944;51.574;6.980;2023-06-10T03:54:40;18.60;99.90
1888;DHT22;944;51.574;6.980;2023-06-10T03:57:07;18.60;99.90
1888;DHT22;944;51.574;6.980;2023-06-10T03:59:35;18.50;99.90
1888;DHT22;944;51.574;6.980;2023-06-10T04:02:04;18.60;99.90
1888;DHT22;944;51.574;6.980;2023-06-10T04:04:33;18.60;99.90
1888;DHT22;944;51.574;6.980;2023-06-10T04:07:04;18.50;99.90
1888;DHT22;944;51.574;6.980;2023-06-10T04:09:32;18.70;99.90
1888;DHT22;944;51.574;6.980;2023-06-10T04:11:59;18.40;99.90
1888;DHT22;944;51.574;6.980;2023-06-10T04:14:27;18.50;99.90
1888;DHT22;944;51.574;6.980;2023-06-10T04:16:55;18.60;99.90
1888;DHT22;944;51.574;6.980;2023-06-10T04:19:23;18.60;99.90
1888;DHT22;944;51.574;6.980;2023-06-10T04:21:51;18.50;99.90
1888;DHT22;944;51.574;6.980;2023-06-10T04:24:20;18.50;99.90
1888;DHT22;944;51.574;6.980;2023-06-10T04:26:50;18.60;99.90
1888;DHT22;944;51.574;6.980;2023-06-10T04:29:18;18.50;99.90
1888;DHT22;944;51.574;6.980;2023-06-10T04:31:46;18.50;99.90
1888;DHT22;944;51.574;6.980;2023-06-10T04:34:14;18.60;99.90
1888;DHT22;944;51.574;6.980;2023-06-10T04:36:45;18.60;99.90
1888;DHT22;944;51.574;6.980;2023-06-10T04:39:12;18.60;99.90
1888;DHT22;944;51.574;6.980;2023-06-10T04:41:43;18.60;99.90
1888;DHT22;944;51.574;6.980;2023-06-10T04:44:12;18.70;99.90
1888;DHT22;944;51.574;6.980;2023-06-10T04:46:40;18.50;99.90
1888;DHT22;944;51.574;6.980;2023-06-10T04:49:09;18.70;99.90
1888;DHT22;944;51.574;6.980;2023-06-10T04:51:41;18.80;99.90
1888;DHT22;944;51.574;6.980;2023-06-10T04:54:09;18.90;99.90
1888;DHT22;944;51.574;6.980;2023-06-10T04:56:37;18.90;99.90
1888;DHT22;944;51.574;6.980;2023-06-10T04:59:07;18.90;99.90
1888;DHT22;944;51.574;6.980;2023-06-10T05:01:35;18.80;99.90
1888;DHT22;944;51.574;6.980;2023-06-10T05:04:02;19.00;99.90
1888;DHT22;944;51.574;6.980;2023-06-10T05:06:33;19.00;99.90
1888;DHT22;944;51.574;6.980;2023-06-10T05:09:03;19.00;99.90
1888;DHT22;944;51.574;6.980;2023-06-10T05:11:33;19.00;99.90
1888;DHT22;944;51.574;6.980;2023-06-10T05:14:00;19.00;99.90
1888;DHT22;944;51.574;6.980;2023-06-10T05:16:29;19.20;99.90
1888;DHT22;944;51.574;6.980;2023-06-10T05:18:57;19.20;99.90
1888;DHT22;944;51.574;6.980;2023-06-10T05:21:25;19.30;99.90
1888;DHT22;944;51.574;6.980;2023-06-10T05:23:52;19.50;99.90
1888;DHT22;944;51.574;6.980;2023-06-10T05:26:20;19.60;99.90
1888;DHT22;944;51.574;6.980;2023-06-10T05:28:54;19.70;99.90
1888;DHT22;944;51.574;6.980;2023-06-10T05:31:22;19.50;99.90
1888;DHT22;944;51.574;6.980;2023-06-10T05:33:50;19.40;99.90
1888;DHT22;944;51.574;6.980;2023-06-10T05:36:18;19.60;99.90
1888;DHT22;944;51.574;6.980;2023-06-10T05:38:46;19.60;99.90
1888;DHT22;944;51.574;6.980;2023-06-10T05:41:14;19.60;99.90
1888;DHT22;944;51.574;6.980;2023-06-10T05:43:42;19.80;99.90
1888;DHT22;944;51.574;6.980;2023-06-10T05:46:09;19.90;99.90
1888;DHT22;944;51.574;6.980;2023-06-10T05:48:36;20.10;99.90
1888;DHT22;944;51.574;6.980;2023-06-10T05:51:04;20.10;99.90
1888;DHT22;944;51.574;6.980;2023-06-10T05:53:31;20.20;99.90
1888;DHT22;944;51.574;6.980;2023-06-10T05:55:58;20.20;99.90
1888;DHT22;944;51.574;6.980;2023-06-10T05:58:26;20.50;99.90
1888;DHT22;944;51.574;6.980;2023-06-10T06:00:52;20.80;99.90
1888;DHT22;944;51.574;6.980;2023-06-10T06:03:19;21.10;99.90
1888;DHT22;944;51.574;6.980;2023-06-10T06:05:46;21.50;99.90
1888;DHT22;944;51.574;6.980;2023-06-10T06:08:15;22.00;99.90
1888;DHT22;944;51.574;6.980;2023-06-10T06:14:24;22.80;99.90
1888;DHT22;944;51.574;6.980;2023-06-10T06:16:51;23.10;99.90
1888;DHT22;944;51.574;6.980;2023-06-10T06:19:18;23.30;99.90
1888;DHT22;944;51.574;6.980;2023-06-10T06:21:45;23.60;99.90
1888;DHT22;944;51.574;6.980;2023-06-10T06:24:15;23.80;99.90
1888;DHT22;944;51.574;6.980;2023-06-10T06:26:42;23.80;99.90
1888;DHT22;944;51.574;6.980;2023-06-10T06:29:09;24.20;99.90
1888;DHT22;944;51.574;6.980;2023-06-10T06:31:36;24.20;99.90
1888;DHT22;944;51.574;6.980;2023-06-10T06:34:03;24.10;99.90
1888;DHT22;944;51.574;6.980;2023-06-10T06:36:32;23.80;99.90
1888;DHT22;944;51.574;6.980;2023-06-10T06:38:59;23.70;99.90
1888;DHT22;944;51.574;6.980;2023-06-10T06:41:27;23.50;99.90
1888;DHT22;944;51.574;6.980;2023-06-10T06:43:54;23.70;99.90
1888;DHT22;944;51.574;6.980;2023-06-10T06:46:21;23.70;99.90
1888;DHT22;944;51.574;6.980;2023-06-10T06:52:29;24.00;99.90
1888;DHT22;944;51.574;6.980;2023-06-10T06:54:56;24.10;99.90
1888;DHT22;944;51.574;6.980;2023-06-10T06:57:24;24.30;99.90
1888;DHT22;944;51.574;6.980;2023-06-10T06:59:51;24.20;99.90
1888;DHT22;944;51.574;6.980;2023-06-10T07:02:18;24.40;99.90
1888;DHT22;944;51.574;6.980;2023-06-10T07:04:45;24.70;99.90
1888;DHT22;944;51.574;6.980;2023-06-10T07:07:14;25.00;99.90
1888;DHT22;944;51.574;6.980;2023-06-10T07:09:41;24.80;99.90
1888;DHT22;944;51.574;6.980;2023-06-10T07:12:09;24.80;99.90
1888;DHT22;944;51.574;6.980;2023-06-10T07:14:37;24.80;99.90
1888;DHT22;944;51.574;6.980;2023-06-10T07:17:05;24.90;99.90
1888;DHT22;944;51.574;6.980;2023-06-10T08:04:32;26.90;99.90
1888;DHT22;944;51.574;6.980;2023-06-10T08:07:49;26.70;99.90
1888;DHT22;944;51.574;6.980;2023-06-10T08:10:25;26.50;99.90
1888;DHT22;944;51.574;6.980;2023-06-10T08:13:32;26.90;99.90
1888;DHT22;944;51.574;6.980;2023-06-10T08:16:47;27.30;99.90
1888;DHT22;944;51.574;6.980;2023-06-10T08:19:25;27.40;99.90
1888;DHT22;944;51.574;6.980;2023-06-10T08:23:00;27.00;99.90
1888;DHT22;944;51.574;6.980;2023-06-10T08:26:02;27.20;99.90
1888;DHT22;944;51.574;6.980;2023-06-10T08:28:33;27.40;99.90
1888;DHT22;944;51.574;6.980;2023-06-10T08:31:22;27.70;99.90
1888;DHT22;944;51.574;6.980;2023-06-10T10:02:22;29.20;99.90
1888;DHT22;944;51.574;6.980;2023-06-10T10:05:08;28.50;99.90
1888;DHT22;944;51.574;6.980;2023-06-10T10:07:51;28.50;99.90
1888;DHT22;944;51.574;6.980;2023-06-10T10:10:36;28.40;99.90
1888;DHT22;944;51.574;6.980;2023-06-10T10:13:11;28.10;99.90
1888;DHT22;944;51.574;6.980;2023-06-10T10:15:40;27.90;99.90
1888;DHT22;944;51.574;6.980;2023-06-10T10:18:18;28.00;99.90
1888;DHT22;944;51.574;6.980;2023-06-10T10:20:59;28.20;99.90
1888;DHT22;944;51.574;6.980;2023-06-10T10:23:50;28.20;99.90
1888;DHT22;944;51.574;6.980;2023-06-10T10:26:28;28.00;99.90
1888;DHT22;944;51.574;6.980;2023-06-10T10:29:07;27.90;99.90
1888;DHT22;944;51.574;6.980;2023-06-10T10:31:42;27.60;99.90
1888;DHT22;944;51.574;6.980;2023-06-10T10:37:37;27.50;99.90
1888;DHT22;944;51.574;6.980;2023-06-10T10:40:07;27.80;99.90
1888;DHT22;944;51.574;6.980;2023-06-10T10:42:36;28.10;99.90
1888;DHT22;944;51.574;6.980;2023-06-10T10:45:04;28.10;99.90
1888;DHT22;944;51.574;6.980;2023-06-10T10:47:33;28.30;99.90
1888;DHT22;944;51.574;6.980;2023-06-10T10:50:20;28.20;99.90
1888;DHT22;944;51.574;6.980;2023-06-10T10:52:59;28.10;99.90
1888;DHT22;944;51.574;6.980;2023-06-10T10:55:28;28.20;99.90
1888;DHT22;944;51.574;6.980;2023-06-10T10:58:06;28.60;99.90
1888;DHT22;944;51.574;6.980;2023-06-10T11:00:44;28.40;99.90
1888;DHT22;944;51.574;6.980;2023-06-10T11:03:14;28.10;99.90
1888;DHT22;944;51.574;6.980;2023-06-10T11:05:51;28.00;99.90
1888;DHT22;944;51.574;6.980;2023-06-10T11:08:46;28.10;99.90
1888;DHT22;944;51.574;6.980;2023-06-10T11:11:21;28.20;99.90
1888;DHT22;944;51.574;6.980;2023-06-10T11:14:07;28.40;99.90
1888;DHT22;944;51.574;6.980;2023-06-10T11:16:41;28.40;99.90
1888;DHT22;944;51.574;6.980;2023-06-10T11:19:09;28.40;99.90
1888;DHT22;944;51.574;6.980;2023-06-10T11:22:01;28.40;99.90
1888;DHT22;944;51.574;6.980;2023-06-10T13:44:53;29.10;99.90
1888;DHT22;944;51.574;6.980;2023-06-10T13:55:06;29.00;99.90
1888;DHT22;944;51.574;6.980;2023-06-10T14:13:46;29.20;99.90
1888;DHT22;944;51.574;6.980;2023-06-10T18:12:00;27.40;99.90
1888;DHT22;944;51.574;6.980;2023-06-10T18:14:29;27.40;99.90
1888;DHT22;944;51.574;6.980;2023-06-10T18:39:28;26.90;99.90
1888;DHT22;944;51.574;6.980;2023-06-10T18:42:16;26.80;99.90
1888;DHT22;944;51.574;6.980;2023-06-10T18:44:44;26.80;99.90
1888;DHT22;944;51.574;6.980;2023-06-10T18:47:15;26.60;99.90
1888;DHT22;944;51.574;6.980;2023-06-10T18:49:44;26.70;99.90
1888;DHT22;944;51.574;6.980;2023-06-10T18:52:21;26.60;99.90
1888;DHT22;944;51.574;6.980;2023-06-10T18:54:48;26.50;99.90
1888;DHT22;944;51.574;6.980;2023-06-10T18:57:22;26.40;99.90
1888;DHT22;944;51.574;6.980;2023-06-10T18:59:50;26.50;99.90
1888;DHT22;944;51.574;6.980;2023-06-10T19:03:04;26.50;99.90
1888;DHT22;944;51.574;6.980;2023-06-10T19:05:34;26.40;99.90
1888;DHT22;944;51.574;6.980;2023-06-10T19:08:32;26.40;99.90
1888;DHT22;944;51.574;6.980;2023-06-10T19:11:19;26.30;99.90
1888;DHT22;944;51.574;6.980;2023-06-10T19:14:04;26.30;99.90
1888;DHT22;944;51.574;6.980;2023-06-10T19:16:43;26.30;99.90
1888;DHT22;944;51.574;6.980;2023-06-10T19:21:22;26.20;99.90
1888;DHT22;944;51.574;6.980;2023-06-10T19:22:46;26.10;99.90
1888;DHT22;944;51.574;6.980;2023-06-10T19:28:58;26.00;99.90
1888;DHT22;944;51.574;6.980;2023-06-10T19:31:34;26.00;99.90
1888;DHT22;944;51.574;6.980;2023-06-10T19:34:49;25.90;99.90
1888;DHT22;944;51.574;6.980;2023-06-10T22:30:14;23.00;99.90
1888;DHT22;944;51.574;6.980;2023-06-10T22:32:41;23.00;99.90
1888;DHT22;944;51.574;6.980;2023-06-10T22:35:12;23.20;99.90
1888;DHT22;944;51.574;6.980;2023-06-10T22:37:41;23.00;99.90
1888;DHT22;944;51.574;6.980;2023-06-10T22:40:15;23.00;99.90
1888;DHT22;944;51.574;6.980;2023-06-10T22:42:42;22.90;99.90
1888;DHT22;944;51.574;6.980;2023-06-10T22:45:09;22.80;99.90
1888;DHT22;944;51.574;6.980;2023-06-10T22:47:38;22.80;99.90
1888;DHT22;944;51.574;6.980;2023-06-10T22:50:07;22.80;99.90
1888;DHT22;944;51.574;6.980;2023-06-10T22:52:37;22.80;99.90
1888;DHT22;944;51.574;6.980;2023-06-10T22:55:06;22.70;99.90
1888;DHT22;944;51.574;6.980;2023-06-10T22:57:40;22.70;99.90
1888;DHT22;944;51.574;6.980;2023-06-10T23:00:24;22.60;99.90
1888;DHT22;944;51.574;6.980;2023-06-10T23:02:53;22.60;99.90
1888;DHT22;944;51.574;6.980;2023-06-10T23:05:20;22.60;99.90
1888;DHT22;944;51.574;6.980;2023-06-10T23:07:48;22.50;99.90
1888;DHT22;944;51.574;6.980;2023-06-10T23:10:18;22.40;99.90
1888;DHT22;944;51.574;6.980;2023-06-10T23:12:56;22.40;99.90
1888;DHT22;944;51.574;6.980;2023-06-10T23:15:24;22.30;99.90
1888;DHT22;944;51.574;6.980;2023-06-10T23:17:52;22.20;99.90
1888;DHT22;944;51.574;6.980;2023-06-10T23:20:23;22.10;99.90
1888;DHT22;944;51.574;6.980;2023-06-10T23:22:50;22.10;99.90
1888;DHT22;944;51.574;6.980;2023-06-10T23:25:18;22.10;99.90
